createdAt,value
2023-01-29T00:01:35.687Z,-0.76
2023-01-29T00:04:02.441Z,-0.75
2023-01-29T00:06:29.150Z,-0.75
2023-01-29T00:08:55.815Z,-0.73
2023-01-29T00:11:24.082Z,-0.71
2023-01-29T00:13:51.838Z,-0.71
2023-01-29T00:16:19.166Z,-0.71
2023-01-29T00:18:46.005Z,-0.69
2023-01-29T00:21:15.809Z,-0.66
2023-01-29T00:23:43.114Z,-0.65
2023-01-29T00:26:10.793Z,-0.67
2023-01-29T00:28:37.520Z,-0.66
2023-01-29T00:31:12.093Z,-0.66
2023-01-29T00:33:38.820Z,-0.67
2023-01-29T00:36:06.857Z,-0.65
2023-01-29T00:38:34.620Z,-0.69
2023-01-29T00:41:32.915Z,-0.71
2023-01-29T00:44:19.337Z,-0.67
2023-01-29T00:46:46.364Z,-0.72
2023-01-29T00:49:13.020Z,-0.73
2023-01-29T00:51:39.933Z,-0.76
2023-01-29T00:54:06.967Z,-0.74
2023-01-29T00:56:37.482Z,-0.76
2023-01-29T00:59:04.846Z,-0.79
2023-01-29T01:01:50.291Z,-0.80
2023-01-29T01:04:16.939Z,-0.76
2023-01-29T01:06:43.881Z,-0.77
2023-01-29T01:09:32.811Z,-0.77
2023-01-29T01:12:01.967Z,-0.78
2023-01-29T01:14:28.582Z,-0.81
2023-01-29T01:16:55.287Z,-0.77
2023-01-29T01:19:21.911Z,-0.77
2023-01-29T01:21:48.574Z,-0.80
2023-01-29T01:24:15.438Z,-0.80
2023-01-29T01:26:44.700Z,-0.83
2023-01-29T01:29:11.444Z,-0.86
2023-01-29T01:31:38.187Z,-0.89
2023-01-29T01:34:04.924Z,-0.87
2023-01-29T01:36:32.463Z,-0.87
2023-01-29T01:38:59.236Z,-0.81
2023-01-29T01:41:25.876Z,-0.82
2023-01-29T01:43:56.519Z,-0.92
2023-01-29T01:46:24.360Z,-0.84
2023-01-29T01:48:57.828Z,-0.82
2023-01-29T01:51:28.906Z,-0.82
2023-01-29T01:54:11.066Z,-0.81
2023-01-29T01:56:43.020Z,-0.86
2023-01-29T01:59:17.246Z,-0.90
2023-01-29T02:01:50.196Z,-0.91
2023-01-29T02:04:39.461Z,-0.87
2023-01-29T02:07:32.160Z,-0.84
2023-01-29T02:10:15.738Z,-0.87
2023-01-29T02:12:44.328Z,-0.94
2023-01-29T02:15:12.231Z,-0.92
2023-01-29T02:17:38.985Z,-0.91
2023-01-29T02:20:27.959Z,-0.94
2023-01-29T02:22:55.427Z,-0.92
2023-01-29T02:25:42.656Z,-0.93
2023-01-29T02:28:09.240Z,-0.94
2023-01-29T02:30:41.826Z,-0.94
2023-01-29T02:33:22.340Z,-1.01
2023-01-29T02:36:12.388Z,-0.97
2023-01-29T02:39:04.583Z,-0.96
2023-01-29T02:41:53.933Z,-1.02
2023-01-29T02:44:42.362Z,-1.02
2023-01-29T02:47:09.041Z,-1.02
2023-01-29T02:49:43.725Z,-1.01
2023-01-29T02:52:18.684Z,-1.05
2023-01-29T02:54:55.661Z,-1.03
2023-01-29T02:57:29.771Z,-1.05
2023-01-29T03:00:02.360Z,-1.06
2023-01-29T03:02:35.043Z,-1.08
2023-01-29T03:05:06.378Z,-1.13
2023-01-29T03:07:42.903Z,-1.20
2023-01-29T03:10:21.717Z,-1.21
2023-01-29T03:12:55.721Z,-1.20
2023-01-29T03:15:30.185Z,-1.14
2023-01-29T03:18:08.966Z,-1.13
2023-01-29T03:20:58.559Z,-1.20
2023-01-29T03:23:50.294Z,-1.17
2023-01-29T03:26:38.877Z,-1.20
2023-01-29T03:29:26.068Z,-1.17
2023-01-29T03:32:05.446Z,-1.19
2023-01-29T03:34:52.085Z,-1.22
2023-01-29T03:37:27.234Z,-1.27
2023-01-29T03:39:54.733Z,-1.33
2023-01-29T03:42:31.653Z,-1.28
2023-01-29T03:45:23.884Z,-1.32
2023-01-29T03:47:56.311Z,-1.31
2023-01-29T03:50:22.908Z,-1.32
2023-01-29T03:52:55.869Z,-1.40
2023-01-29T03:55:31.903Z,-1.36
2023-01-29T03:58:00.449Z,-1.30
2023-01-29T04:00:32.132Z,-1.26
2023-01-29T04:03:13.610Z,-1.27
2023-01-29T04:05:44.935Z,-1.28
2023-01-29T04:08:17.287Z,-1.29
2023-01-29T04:10:46.291Z,-1.29
2023-01-29T04:13:15.060Z,-1.26
2023-01-29T04:15:48.265Z,-1.24
2023-01-29T04:18:15.237Z,-1.29
2023-01-29T04:20:42.416Z,-1.38
2023-01-29T04:23:21.454Z,-1.40
2023-01-29T04:26:08.126Z,-1.41
2023-01-29T04:28:58.772Z,-1.56
2023-01-29T04:31:33.185Z,-1.67
2023-01-29T04:34:16.015Z,-1.78
2023-01-29T04:37:07.724Z,-1.86
2023-01-29T04:39:55.407Z,-1.84
2023-01-29T04:42:47.571Z,-1.78
2023-01-29T04:45:20.277Z,-1.81
2023-01-29T04:48:14.874Z,-1.80
2023-01-29T04:51:03.601Z,-1.94
2023-01-29T04:53:58.433Z,-1.78
2023-01-29T04:57:12.939Z,-1.67
2023-01-29T04:59:45.896Z,-1.67
2023-01-29T05:02:13.348Z,-1.63
2023-01-29T05:04:43.494Z,-1.57
2023-01-29T05:07:13.780Z,-1.59
2023-01-29T05:09:44.120Z,-1.66
2023-01-29T05:12:12.966Z,-1.75
2023-01-29T05:14:43.433Z,-1.73
2023-01-29T05:17:15.846Z,-1.75
2023-01-29T05:19:42.682Z,-1.80
2023-01-29T05:22:12.545Z,-1.77
2023-01-29T05:24:39.170Z,-1.73
2023-01-29T05:27:24.430Z,-1.84
2023-01-29T05:29:51.061Z,-1.83
2023-01-29T05:32:17.791Z,-1.88
2023-01-29T05:34:44.372Z,-1.82
2023-01-29T05:37:10.994Z,-1.77
2023-01-29T05:39:37.633Z,-1.77
2023-01-29T05:42:04.437Z,-1.83
2023-01-29T05:44:31.120Z,-2.00
2023-01-29T05:46:57.760Z,-1.93
2023-01-29T05:49:24.477Z,-1.98
2023-01-29T05:51:51.131Z,-2.09
2023-01-29T05:54:17.752Z,-2.07
2023-01-29T05:56:44.395Z,-2.06
2023-01-29T05:59:12.132Z,-2.11
2023-01-29T06:01:38.828Z,-2.05
2023-01-29T06:04:05.422Z,-2.07
2023-01-29T06:06:32.053Z,-2.10
2023-01-29T06:08:58.619Z,-2.24
2023-01-29T06:11:25.627Z,-2.32
2023-01-29T06:13:52.293Z,-2.37
2023-01-29T06:16:19.183Z,-2.32
2023-01-29T06:18:45.813Z,-2.43
2023-01-29T06:21:13.697Z,-2.45
2023-01-29T06:23:40.788Z,-2.38
2023-01-29T06:26:11.532Z,-2.34
2023-01-29T06:28:38.608Z,-2.36
2023-01-29T06:33:53.228Z,-2.30
2023-01-29T06:36:19.907Z,-2.26
2023-01-29T06:38:47.389Z,-2.15
2023-01-29T06:41:18.187Z,-2.16
2023-01-29T06:43:45.944Z,-2.20
2023-01-29T06:46:12.796Z,-2.20
2023-01-29T06:48:39.875Z,-2.23
2023-01-29T06:51:11.020Z,-2.23
2023-01-29T06:53:38.710Z,-2.10
2023-01-29T06:56:06.448Z,-2.06
2023-01-29T06:58:33.175Z,-2.18
2023-01-29T07:01:08.275Z,-2.18
2023-01-29T07:03:34.979Z,-2.23
2023-01-29T07:06:02.393Z,-2.28
2023-01-29T07:08:29.132Z,-2.15
2023-01-29T07:11:01.091Z,-2.08
2023-01-29T07:13:28.075Z,-2.09
2023-01-29T07:15:54.873Z,-1.96
2023-01-29T07:18:21.578Z,-2.06
2023-01-29T07:20:48.186Z,-2.10
2023-01-29T07:23:15.741Z,-2.10
2023-01-29T07:25:42.483Z,-1.98
2023-01-29T07:28:09.548Z,-1.91
2023-01-29T07:30:36.759Z,-1.89
2023-01-29T07:33:07.439Z,-1.83
2023-01-29T07:35:39.688Z,-1.87
2023-01-29T07:38:08.410Z,-1.83
2023-01-29T07:40:35.333Z,-1.72
2023-01-29T07:43:04.514Z,-1.77
2023-01-29T07:45:31.726Z,-1.68
2023-01-29T07:47:58.385Z,-1.62
2023-01-29T07:50:27.098Z,-1.67
2023-01-29T07:52:57.102Z,-1.61
2023-01-29T07:55:24.312Z,-1.65
2023-01-29T07:58:02.071Z,-1.77
2023-01-29T08:00:30.225Z,-1.73
2023-01-29T08:03:09.578Z,-1.55
2023-01-29T08:05:36.779Z,-1.56
2023-01-29T08:08:07.527Z,-1.50
2023-01-29T08:10:36.249Z,-1.39
2023-01-29T08:13:03.801Z,-1.35
2023-01-29T08:15:30.534Z,-1.31
2023-01-29T08:20:43.905Z,-1.26
2023-01-29T08:23:14.852Z,-1.19
2023-01-29T08:25:41.708Z,-1.21
2023-01-29T08:28:08.818Z,-1.14
2023-01-29T08:30:37.606Z,-1.15
2023-01-29T08:33:07.545Z,-1.11
2023-01-29T08:35:34.259Z,-1.14
2023-01-29T08:38:03.534Z,-1.00
2023-01-29T08:40:34.435Z,-0.83
2023-01-29T08:43:09.655Z,-0.82
2023-01-29T08:45:40.371Z,-0.79
2023-01-29T08:48:07.621Z,-0.66
2023-01-29T08:50:35.138Z,-0.77
2023-01-29T08:53:09.675Z,-0.62
2023-01-29T08:55:37.561Z,-0.61
2023-01-29T08:58:05.964Z,-0.51
2023-01-29T09:00:34.116Z,-0.46
2023-01-29T09:03:04.006Z,-0.61
2023-01-29T09:05:31.277Z,-0.64
2023-01-29T09:07:58.363Z,-0.62
2023-01-29T09:10:25.646Z,-0.64
2023-01-29T09:12:52.248Z,-0.37
2023-01-29T09:15:19.457Z,-0.22
2023-01-29T09:17:46.120Z,-0.15
2023-01-29T09:20:15.763Z,-0.13
2023-01-29T09:22:42.446Z,-0.13
2023-01-29T09:25:10.877Z,-0.16
2023-01-29T09:27:41.007Z,-0.10
2023-01-29T09:30:10.338Z,-0.07
2023-01-29T09:32:52.777Z,0.01
2023-01-29T09:35:22.058Z,0.09
2023-01-29T09:37:52.866Z,0.26
2023-01-29T09:40:43.760Z,0.32
2023-01-29T09:43:45.741Z,0.28
2023-01-29T09:46:20.686Z,0.25
2023-01-29T09:48:50.480Z,0.34
2023-01-29T09:51:31.674Z,0.39
2023-01-29T09:54:07.874Z,0.47
2023-01-29T09:56:44.722Z,0.40
2023-01-29T09:59:14.408Z,0.52
2023-01-29T10:02:06.386Z,0.46
2023-01-29T10:04:39.311Z,0.49
2023-01-29T10:07:11.728Z,0.53
2023-01-29T10:09:59.842Z,0.53
2023-01-29T10:13:00.145Z,0.49
2023-01-29T10:15:53.111Z,0.53
2023-01-29T10:18:32.040Z,0.55
2023-01-29T10:21:17.142Z,0.57
2023-01-29T10:24:13.376Z,0.67
2023-01-29T10:26:40.944Z,0.70
2023-01-29T10:29:08.335Z,0.76
2023-01-29T10:31:40.350Z,0.78
2023-01-29T10:34:16.175Z,0.89
2023-01-29T10:36:47.030Z,1.03
2023-01-29T10:39:22.075Z,1.02
2023-01-29T10:42:06.856Z,1.07
2023-01-29T10:44:42.509Z,1.22
2023-01-29T10:47:25.052Z,1.18
2023-01-29T10:50:25.671Z,1.17
2023-01-29T10:53:35.910Z,1.25
2023-01-29T10:56:25.025Z,1.17
2023-01-29T10:59:33.469Z,1.28
2023-01-29T11:02:00.567Z,1.32
2023-01-29T11:04:28.878Z,1.29
2023-01-29T11:06:59.452Z,1.22
2023-01-29T11:09:39.405Z,1.26
2023-01-29T11:12:09.811Z,1.15
2023-01-29T11:14:47.661Z,1.06
2023-01-29T11:17:23.493Z,1.18
2023-01-29T11:19:52.143Z,1.23
2023-01-29T11:22:21.892Z,1.33
2023-01-29T11:25:10.561Z,1.23
2023-01-29T11:27:57.228Z,1.24
2023-01-29T11:30:27.938Z,1.30
2023-01-29T11:33:18.588Z,1.30
2023-01-29T11:35:45.537Z,1.26
2023-01-29T11:38:33.571Z,1.26
2023-01-29T11:41:19.143Z,1.12
2023-01-29T11:43:45.780Z,1.01
2023-01-29T11:46:17.864Z,1.06
2023-01-29T11:48:51.689Z,1.00
2023-01-29T11:51:25.691Z,1.00
2023-01-29T11:53:58.633Z,0.94
2023-01-29T11:56:41.126Z,1.04
2023-01-29T11:59:30.403Z,1.02
2023-01-29T12:02:22.627Z,1.00
2023-01-29T12:04:51.018Z,0.92
2023-01-29T12:07:19.165Z,0.92
2023-01-29T12:09:52.807Z,0.97
2023-01-29T12:12:30.237Z,1.03
2023-01-29T12:15:05.272Z,1.03
2023-01-29T12:17:37.616Z,1.00
2023-01-29T12:20:13.234Z,1.10
2023-01-29T12:22:56.434Z,0.99
2023-01-29T12:25:40.918Z,0.85
2023-01-29T12:28:28.780Z,0.84
2023-01-29T12:31:13.751Z,0.92
2023-01-29T12:34:20.140Z,0.95
2023-01-29T12:37:03.391Z,0.94
2023-01-29T12:39:35.327Z,0.97
2023-01-29T12:42:09.287Z,0.90
2023-01-29T12:44:45.157Z,0.79
2023-01-29T12:47:36.643Z,0.77
2023-01-29T12:50:26.486Z,0.76
2023-01-29T12:52:56.316Z,0.80
2023-01-29T12:55:28.080Z,0.81
2023-01-29T12:58:00.798Z,0.66
2023-01-29T13:00:33.674Z,0.55
2023-01-29T13:03:18.069Z,0.46
2023-01-29T13:05:54.465Z,0.43
2023-01-29T13:08:44.673Z,0.38
2023-01-29T13:11:19.276Z,0.32
2023-01-29T13:13:58.280Z,0.21
2023-01-29T13:16:37.621Z,0.09
2023-01-29T13:19:14.231Z,0.10
2023-01-29T13:21:43.926Z,0.11
2023-01-29T13:24:15.944Z,0.14
2023-01-29T13:26:47.204Z,0.18
2023-01-29T13:29:30.888Z,0.07
2023-01-29T13:32:01.071Z,-0.02
2023-01-29T13:34:38.505Z,-0.06
2023-01-29T13:37:16.921Z,-0.18
2023-01-29T13:39:53.438Z,-0.17
2023-01-29T13:42:24.099Z,-0.28
2023-01-29T13:44:54.414Z,-0.31
2023-01-29T13:47:31.900Z,-0.32
2023-01-29T13:50:20.161Z,-0.35
2023-01-29T13:53:02.276Z,-0.29
2023-01-29T13:55:33.635Z,-0.29
2023-01-29T13:58:09.707Z,-0.28
2023-01-29T14:00:36.356Z,-0.30
2023-01-29T14:03:11.937Z,-0.32
2023-01-29T14:05:43.521Z,-0.36
2023-01-29T14:08:10.138Z,-0.36
2023-01-29T14:10:38.352Z,-0.35
2023-01-29T14:13:04.976Z,-0.37
2023-01-29T14:15:34.683Z,-0.43
2023-01-29T14:18:22.367Z,-0.48
2023-01-29T14:20:48.926Z,-0.44
2023-01-29T14:23:28.683Z,-0.50
2023-01-29T14:25:56.601Z,-0.50
2023-01-29T14:28:27.008Z,-0.45
2023-01-29T14:30:55.255Z,-0.53
2023-01-29T14:33:38.154Z,-0.55
2023-01-29T14:36:10.860Z,-0.61
2023-01-29T14:38:38.835Z,-0.63
2023-01-29T14:41:24.569Z,-0.66
2023-01-29T14:43:51.196Z,-0.66
2023-01-29T14:46:35.955Z,-0.71
2023-01-29T14:49:03.233Z,-0.70
2023-01-29T14:51:36.844Z,-0.81
2023-01-29T14:54:18.863Z,-0.77
2023-01-29T14:56:59.660Z,-0.71
2023-01-29T14:59:46.573Z,-0.76
2023-01-29T15:02:27.136Z,-0.82
2023-01-29T15:04:58.843Z,-0.83
2023-01-29T15:07:32.024Z,-0.80
2023-01-29T15:10:22.884Z,-0.81
2023-01-29T15:13:03.049Z,-0.90
2023-01-29T15:15:57.111Z,-0.95
2023-01-29T15:18:29.683Z,-0.96
2023-01-29T15:21:05.914Z,-0.96
2023-01-29T15:23:34.524Z,-0.97
2023-01-29T15:26:27.012Z,-1.02
2023-01-29T15:29:04.109Z,-1.02
2023-01-29T15:31:31.972Z,-0.94
2023-01-29T15:34:05.018Z,-0.98
2023-01-29T15:36:32.462Z,-1.01
2023-01-29T15:39:20.175Z,-0.92
2023-01-29T15:41:47.336Z,-0.94
2023-01-29T15:44:20.410Z,-1.02
2023-01-29T15:46:57.035Z,-1.01
2023-01-29T15:49:34.061Z,-0.94
2023-01-29T15:52:05.001Z,-0.99
2023-01-29T15:54:33.732Z,-1.03
2023-01-29T15:57:01.956Z,-0.96
2023-01-29T15:59:36.957Z,-1.01
2023-01-29T16:02:40.228Z,-1.02
2023-01-29T16:05:15.789Z,-1.02
2023-01-29T16:07:43.607Z,-1.05
2023-01-29T16:10:28.728Z,-0.99
2023-01-29T16:12:56.392Z,-0.98
2023-01-29T16:15:38.005Z,-0.98
2023-01-29T16:18:21.233Z,-0.97
2023-01-29T16:20:52.574Z,-1.03
2023-01-29T16:23:36.940Z,-1.06
2023-01-29T16:26:08.446Z,-1.10
2023-01-29T16:28:42.882Z,-1.01
2023-01-29T16:31:12.079Z,-1.00
2023-01-29T16:33:41.898Z,-0.99
2023-01-29T16:36:16.822Z,-1.01
2023-01-29T16:38:47.871Z,-1.11
2023-01-29T16:41:28.926Z,-1.06
2023-01-29T16:44:01.205Z,-1.12
2023-01-29T16:46:34.089Z,-1.05
2023-01-29T16:49:01.849Z,-1.06
2023-01-29T16:51:37.700Z,-1.06
2023-01-29T16:54:24.189Z,-1.01
2023-01-29T16:57:00.524Z,-1.09
2023-01-29T16:59:37.907Z,-1.06
2023-01-29T17:02:16.587Z,-1.16
2023-01-29T17:04:43.225Z,-1.09
2023-01-29T17:07:24.095Z,-1.13
2023-01-29T17:09:57.293Z,-1.13
2023-01-29T17:12:26.761Z,-1.12
2023-01-29T17:14:56.558Z,-1.18
2023-01-29T17:17:30.501Z,-1.13
2023-01-29T17:19:58.945Z,-1.15
2023-01-29T17:22:25.644Z,-1.13
2023-01-29T17:24:52.356Z,-1.08
2023-01-29T17:27:21.499Z,-1.10
2023-01-29T17:29:48.635Z,-1.18
2023-01-29T17:32:19.883Z,-1.13
2023-01-29T17:34:47.149Z,-1.18
2023-01-29T17:37:15.659Z,-1.15
2023-01-29T17:39:50.485Z,-1.06
2023-01-29T17:42:17.273Z,-1.06
2023-01-29T17:44:43.897Z,-1.04
2023-01-29T17:47:15.102Z,-1.07
2023-01-29T17:49:42.700Z,-1.10
2023-01-29T17:52:09.771Z,-1.18
2023-01-29T17:54:36.759Z,-1.18
2023-01-29T17:57:03.458Z,-1.13
2023-01-29T17:59:33.147Z,-1.12
2023-01-29T18:01:59.945Z,-1.15
2023-01-29T18:04:26.769Z,-1.20
2023-01-29T18:06:57.748Z,-1.24
2023-01-29T18:09:24.748Z,-1.22
2023-01-29T18:11:51.645Z,-1.19
2023-01-29T18:14:18.425Z,-1.12
2023-01-29T18:16:45.865Z,-1.17
2023-01-29T18:19:15.617Z,-1.19
2023-01-29T18:21:42.448Z,-1.15
2023-01-29T18:24:09.183Z,-1.15
2023-01-29T18:26:36.188Z,-1.20
2023-01-29T18:29:04.061Z,-1.30
2023-01-29T18:31:32.805Z,-1.29
2023-01-29T18:33:59.721Z,-1.23
2023-01-29T18:36:26.319Z,-1.25
2023-01-29T18:38:53.024Z,-1.30
2023-01-29T18:41:19.745Z,-1.30
2023-01-29T18:43:46.598Z,-1.19
2023-01-29T18:46:13.344Z,-1.31
2023-01-29T18:48:41.741Z,-1.45
2023-01-29T18:51:09.463Z,-1.36
2023-01-29T18:53:36.145Z,-1.35
2023-01-29T18:56:05.564Z,-1.27
2023-01-29T18:58:35.899Z,-1.34
2023-01-29T19:01:09.531Z,-1.45
2023-01-29T19:03:37.224Z,-1.49
2023-01-29T19:06:05.647Z,-1.36
2023-01-29T19:08:32.613Z,-1.37
2023-01-29T19:11:02.497Z,-1.31
2023-01-29T19:13:30.220Z,-1.34
2023-01-29T19:15:56.914Z,-1.32
2023-01-29T19:18:25.989Z,-1.33
2023-01-29T19:20:53.334Z,-1.27
2023-01-29T19:23:20.847Z,-1.41
2023-01-29T19:25:47.967Z,-1.41
2023-01-29T19:28:18.201Z,-1.44
2023-01-29T19:30:44.917Z,-1.38
2023-01-29T19:33:11.735Z,-1.47
2023-01-29T19:35:47.307Z,-1.51
2023-01-29T19:38:18.836Z,-1.51
2023-01-29T19:40:45.496Z,-1.44
2023-01-29T19:43:16.096Z,-1.49
2023-01-29T19:45:49.597Z,-1.44
2023-01-29T19:48:22.931Z,-1.40
2023-01-29T19:50:58.139Z,-1.40
2023-01-29T19:53:27.275Z,-1.45
2023-01-29T19:56:10.868Z,-1.47
2023-01-29T19:58:38.220Z,-1.53
2023-01-29T20:01:07.840Z,-1.53
2023-01-29T20:03:34.636Z,-1.58
2023-01-29T20:06:05.648Z,-1.52
2023-01-29T20:08:33.778Z,-1.50
2023-01-29T20:11:00.673Z,-1.54
2023-01-29T20:13:28.370Z,-1.49
2023-01-29T20:15:55.701Z,-1.57
2023-01-29T20:18:22.352Z,-1.55
2023-01-29T20:20:50.629Z,-1.53
2023-01-29T20:23:35.299Z,-1.50
2023-01-29T20:26:04.801Z,-1.53
2023-01-29T20:28:31.378Z,-1.58
2023-01-29T20:30:59.088Z,-1.53
2023-01-29T20:33:26.760Z,-1.61
2023-01-29T20:35:58.228Z,-1.57
2023-01-29T20:38:30.303Z,-1.58
2023-01-29T20:41:29.526Z,-1.60
2023-01-29T20:43:56.197Z,-1.67
2023-01-29T20:46:22.869Z,-1.75
2023-01-29T20:48:53.185Z,-1.72
2023-01-29T20:51:20.172Z,-1.70
2023-01-29T20:53:48.053Z,-1.74
2023-01-29T20:56:16.227Z,-1.69
2023-01-29T20:58:43.178Z,-1.72
2023-01-29T21:01:12.956Z,-1.80
2023-01-29T21:03:40.366Z,-1.71
2023-01-29T21:06:11.459Z,-1.71
2023-01-29T21:08:39.102Z,-1.83
2023-01-29T21:11:07.860Z,-1.84
2023-01-29T21:13:35.247Z,-1.79
2023-01-29T21:16:02.428Z,-1.77
2023-01-29T21:18:29.512Z,-1.89
2023-01-29T21:20:56.491Z,-1.80
2023-01-29T21:23:23.208Z,-1.85
2023-01-29T21:25:49.835Z,-1.82
2023-01-29T21:28:16.514Z,-1.91
2023-01-29T21:30:43.241Z,-1.85
2023-01-29T21:33:09.907Z,-1.89
2023-01-29T21:35:37.924Z,-1.87
2023-01-29T21:38:05.010Z,-1.92
2023-01-29T21:40:31.996Z,-1.92
2023-01-29T21:43:15.445Z,-1.92
2023-01-29T21:45:43.019Z,-1.93
2023-01-29T21:48:11.600Z,-1.94
2023-01-29T21:50:38.732Z,-1.94
2023-01-29T21:53:05.431Z,-1.95
2023-01-29T21:55:32.865Z,-1.95
2023-01-29T21:58:00.379Z,-1.90
2023-01-29T22:00:27.444Z,-1.86
2023-01-29T22:02:54.220Z,-1.92
2023-01-29T22:05:22.255Z,-1.91
2023-01-29T22:07:49.962Z,-1.95
2023-01-29T22:10:18.280Z,-1.98
2023-01-29T22:12:45.405Z,-1.95
2023-01-29T22:15:13.156Z,-1.89
2023-01-29T22:17:41.450Z,-1.94
2023-01-29T22:20:12.622Z,-1.93
2023-01-29T22:22:39.354Z,-1.92
2023-01-29T22:25:06.382Z,-1.96
2023-01-29T22:27:33.923Z,-1.96
2023-01-29T22:30:00.883Z,-1.95
2023-01-29T22:32:27.621Z,-2.03
2023-01-29T22:34:54.304Z,-1.96
2023-01-29T22:37:20.968Z,-1.91
2023-01-29T22:39:47.649Z,-1.89
2023-01-29T22:42:14.371Z,-1.95
2023-01-29T22:44:41.455Z,-1.92
2023-01-29T22:47:08.088Z,-2.00
2023-01-29T22:49:34.772Z,-2.05
2023-01-29T22:52:10.334Z,-2.11
2023-01-29T22:54:42.313Z,-2.05
2023-01-29T22:57:11.575Z,-1.98
2023-01-29T22:59:38.575Z,-1.98
2023-01-29T23:02:06.070Z,-2.05
2023-01-29T23:04:32.828Z,-2.10
2023-01-29T23:06:59.681Z,-2.13
2023-01-29T23:09:27.130Z,-1.99
2023-01-29T23:11:53.772Z,-1.98
2023-01-29T23:14:20.488Z,-1.98
2023-01-29T23:16:47.100Z,-2.01
2023-01-29T23:19:13.900Z,-2.01
2023-01-29T23:21:43.711Z,-2.03
2023-01-29T23:24:10.778Z,-2.05
2023-01-29T23:26:56.086Z,-2.04
2023-01-29T23:29:23.078Z,-2.08
2023-01-29T23:31:49.921Z,-2.07
2023-01-29T23:34:16.735Z,-2.12
2023-01-29T23:36:43.537Z,-2.13
2023-01-29T23:39:10.536Z,-2.16
2023-01-29T23:41:37.164Z,-2.11
2023-01-29T23:44:04.761Z,-2.24
2023-01-29T23:46:31.670Z,-2.08
2023-01-29T23:48:58.442Z,-2.11
2023-01-29T23:51:25.221Z,-2.17
2023-01-29T23:53:51.877Z,-2.24
2023-01-29T23:56:18.601Z,-2.23
2023-01-29T23:58:45.815Z,-2.20
